Saint Anne, IL (60964)

8:03 AM CST on November 24, 2014 (GMT -0600)
Greater Kankakee | Change Station
CLOSE
Current Station
Airport
Location: Kankakee,
Elevation: 630 ft
Nearby Weather Stations

Elev 630 ft 41.07 °N, 87.85 °W | Updated 8 minutes ago

Rain
Rain
38 °F
Feels Like 26 °F
N
29
Wind Variable Wind from West
Gusts 39 mph

Today
High -- | Low -- °F
--% Chance of Precip.
Yesterday
High -- | Low -- °F
Precip. -- in
6:48 AM 4:25 PM
Waxing Crescent, 5% visible
Pressure 29.19 in
Visibility 4.0 miles
Clouds Mostly Cloudy 800 ft
Mostly Cloudy 2100 ft
Overcast 4600 ft
Windchill 26 °F
Dew Point 36 °F
Humidity 93%
Rainfall 0.02 in
Snow Depth Not available.
UV 0 out of 12
Pollen .10 out of 12
Air Quality Not available.
Flu Activity Not available.
METAR KIKK 241355Z AUTO 27025G34KT 4SM -RA BKN008 BKN021 OVC046 04/03 A2919 RMK AO2 P0002 T00350025

More Conditions Fewer Conditions

Pressure 29.19 in
Visibility 4.0 miles
Clouds Mostly Cloudy 800 ft
Mostly Cloudy 2100 ft
Overcast 4600 ft
Windchill 26 °F
Dew Point 36 °F
Humidity 93%
Rainfall 0.02 in
Snow Depth Not available.
UV 0 out of 12
Pollen .10 out of 12
Air Quality Not available.
Flu Activity Not available.
METAR KIKK 241355Z AUTO 27025G34KT 4SM -RA BKN008 BKN021 OVC046 04/03 A2919 RMK AO2 P0002 T00350025

More Conditions Fewer Conditions

10-Day Weather Forecast

Almanac

Astronomy

Nov. 24, 2014 Rise Set
Actual Time
Civil Twilight
Nautical Twilight
Astronomical Twilight
Moon
Length of Visible Light
Length of Day
Tomorrow will be .
, % of the Moon is Illuminated

Today's Extremes

State Highs State Lows

Community

WunderPhotos

Upload Photos

1,773,332 photos uploaded!

WunderBlogs® & News

Nearby

Air Quality

  Air Quality AQ Index Pollutant
Not available.

Snow Depth

Station Depth Elevation

Earthquake Activity

City Distance Mag. Time & Date
Minimum magnitude displayed is 2.5.

Coastal Water Temperatures

Place Temperature

Nearby Weather Stations